sensor_id;sensor_type;location;lat;lon;timestamp;temperature;humidity
47546;DHT22;50104;52.002;4.688;2024-01-15T00:02:48;3.10;92.00
47546;DHT22;50104;52.002;4.688;2024-01-15T00:07:49;3.10;91.90
47546;DHT22;50104;52.002;4.688;2024-01-15T00:12:50;3.00;91.90
47546;DHT22;50104;52.002;4.688;2024-01-15T00:17:51;3.00;91.70
47546;DHT22;50104;52.002;4.688;2024-01-15T00:22:51;3.00;91.50
47546;DHT22;50104;52.002;4.688;2024-01-15T00:27:52;2.90;91.40
47546;DHT22;50104;52.002;4.688;2024-01-15T00:32:53;2.90;91.30
47546;DHT22;50104;52.002;4.688;2024-01-15T00:37:54;2.80;91.20
47546;DHT22;50104;52.002;4.688;2024-01-15T00:42:55;2.80;91.10
47546;DHT22;50104;52.002;4.688;2024-01-15T00:47:55;2.70;91.00
47546;DHT22;50104;52.002;4.688;2024-01-15T00:52:57;2.70;91.10
47546;DHT22;50104;52.002;4.688;2024-01-15T00:57:57;2.60;91.00
47546;DHT22;50104;52.002;4.688;2024-01-15T01:02:58;2.60;91.00
47546;DHT22;50104;52.002;4.688;2024-01-15T01:07:59;2.50;91.20
47546;DHT22;50104;52.002;4.688;2024-01-15T01:13:00;2.50;91.20
47546;DHT22;50104;52.002;4.688;2024-01-15T01:18:00;2.50;91.30
47546;DHT22;50104;52.002;4.688;2024-01-15T01:23:01;2.40;91.30
47546;DHT22;50104;52.002;4.688;2024-01-15T01:28:02;2.40;91.40
47546;DHT22;50104;52.002;4.688;2024-01-15T01:33:03;2.40;91.30
47546;DHT22;50104;52.002;4.688;2024-01-15T01:38:24;2.40;91.40
47546;DHT22;50104;52.002;4.688;2024-01-15T01:43:25;2.30;91.60
47546;DHT22;50104;52.002;4.688;2024-01-15T01:48:26;2.30;91.90
47546;DHT22;50104;52.002;4.688;2024-01-15T01:53:29;2.30;92.10
47546;DHT22;50104;52.002;4.688;2024-01-15T01:58:30;2.30;92.20
47546;DHT22;50104;52.002;4.688;2024-01-15T02:03:33;2.30;92.20
47546;DHT22;50104;52.002;4.688;2024-01-15T02:08:34;2.40;92.10
47546;DHT22;50104;52.002;4.688;2024-01-15T02:13:35;2.40;91.90
47546;DHT22;50104;52.002;4.688;2024-01-15T02:18:43;2.30;91.80
47546;DHT22;50104;52.002;4.688;2024-01-15T02:23:44;2.30;91.80
47546;DHT22;50104;52.002;4.688;2024-01-15T02:28:45;2.30;91.90
47546;DHT22;50104;52.002;4.688;2024-01-15T02:33:46;2.30;91.80
47546;DHT22;50104;52.002;4.688;2024-01-15T02:38:47;2.30;91.70
47546;DHT22;50104;52.002;4.688;2024-01-15T02:43:48;2.30;91.70
47546;DHT22;50104;52.002;4.688;2024-01-15T02:48:49;2.20;91.60
47546;DHT22;50104;52.002;4.688;2024-01-15T02:53:50;2.20;91.50
47546;DHT22;50104;52.002;4.688;2024-01-15T02:58:51;2.20;91.50
47546;DHT22;50104;52.002;4.688;2024-01-15T03:03:51;2.20;91.30
47546;DHT22;50104;52.002;4.688;2024-01-15T03:08:52;2.20;91.40
47546;DHT22;50104;52.002;4.688;2024-01-15T03:13:53;2.20;91.50
47546;DHT22;50104;52.002;4.688;2024-01-15T03:18:54;2.10;91.70
47546;DHT22;50104;52.002;4.688;2024-01-15T03:23:55;2.10;91.90
47546;DHT22;50104;52.002;4.688;2024-01-15T03:28:55;2.10;92.10
47546;DHT22;50104;52.002;4.688;2024-01-15T03:33:56;2.10;92.40
47546;DHT22;50104;52.002;4.688;2024-01-15T03:38:57;2.10;92.80
47546;DHT22;50104;52.002;4.688;2024-01-15T03:43:58;2.10;93.00
47546;DHT22;50104;52.002;4.688;2024-01-15T03:48:59;2.20;93.10
47546;DHT22;50104;52.002;4.688;2024-01-15T03:54:00;2.20;93.50
47546;DHT22;50104;52.002;4.688;2024-01-15T03:59:01;2.30;93.70
47546;DHT22;50104;52.002;4.688;2024-01-15T04:04:02;2.30;93.60
47546;DHT22;50104;52.002;4.688;2024-01-15T04:09:02;2.40;93.40
47546;DHT22;50104;52.002;4.688;2024-01-15T04:14:03;2.40;93.20
47546;DHT22;50104;52.002;4.688;2024-01-15T04:19:04;2.40;92.90
47546;DHT22;50104;52.002;4.688;2024-01-15T04:24:05;2.50;92.80
47546;DHT22;50104;52.002;4.688;2024-01-15T04:29:06;2.50;92.80
47546;DHT22;50104;52.002;4.688;2024-01-15T04:34:07;2.50;92.60
47546;DHT22;50104;52.002;4.688;2024-01-15T04:39:08;2.50;92.50
47546;DHT22;50104;52.002;4.688;2024-01-15T04:44:08;2.50;92.50
47546;DHT22;50104;52.002;4.688;2024-01-15T04:49:10;2.50;92.80
47546;DHT22;50104;52.002;4.688;2024-01-15T04:54:11;2.50;93.00
47546;DHT22;50104;52.002;4.688;2024-01-15T04:59:13;2.50;93.30
47546;DHT22;50104;52.002;4.688;2024-01-15T05:04:15;2.50;93.40
47546;DHT22;50104;52.002;4.688;2024-01-15T05:09:15;2.50;93.30
47546;DHT22;50104;52.002;4.688;2024-01-15T05:14:16;2.50;93.00
47546;DHT22;50104;52.002;4.688;2024-01-15T05:19:18;2.50;92.90
47546;DHT22;50104;52.002;4.688;2024-01-15T05:24:19;2.50;92.80
47546;DHT22;50104;52.002;4.688;2024-01-15T05:29:20;2.50;92.70
47546;DHT22;50104;52.002;4.688;2024-01-15T05:34:20;2.40;92.70
47546;DHT22;50104;52.002;4.688;2024-01-15T05:39:21;2.40;92.60
47546;DHT22;50104;52.002;4.688;2024-01-15T05:44:22;2.40;92.70
47546;DHT22;50104;52.002;4.688;2024-01-15T05:49:23;2.30;92.90
47546;DHT22;50104;52.002;4.688;2024-01-15T05:54:24;2.30;93.10
47546;DHT22;50104;52.002;4.688;2024-01-15T05:59:25;2.30;93.20
47546;DHT22;50104;52.002;4.688;2024-01-15T06:04:26;2.30;93.20
47546;DHT22;50104;52.002;4.688;2024-01-15T06:09:26;2.30;93.20
47546;DHT22;50104;52.002;4.688;2024-01-15T06:14:28;2.20;93.20
47546;DHT22;50104;52.002;4.688;2024-01-15T06:19:29;2.20;93.20
47546;DHT22;50104;52.002;4.688;2024-01-15T06:24:30;2.20;93.10
47546;DHT22;50104;52.002;4.688;2024-01-15T06:29:31;2.20;93.10
47546;DHT22;50104;52.002;4.688;2024-01-15T06:34:32;2.20;93.20
47546;DHT22;50104;52.002;4.688;2024-01-15T06:39:33;2.20;93.30
47546;DHT22;50104;52.002;4.688;2024-01-15T06:44:34;2.10;93.80
47546;DHT22;50104;52.002;4.688;2024-01-15T06:49:35;2.20;94.00
47546;DHT22;50104;52.002;4.688;2024-01-15T06:54:35;2.20;93.90
47546;DHT22;50104;52.002;4.688;2024-01-15T06:59:36;2.20;93.80
47546;DHT22;50104;52.002;4.688;2024-01-15T07:04:37;2.20;93.60
47546;DHT22;50104;52.002;4.688;2024-01-15T07:09:39;2.20;93.50
47546;DHT22;50104;52.002;4.688;2024-01-15T07:14:39;2.20;93.50
47546;DHT22;50104;52.002;4.688;2024-01-15T07:19:40;2.20;93.60
47546;DHT22;50104;52.002;4.688;2024-01-15T07:24:41;2.20;93.40
47546;DHT22;50104;52.002;4.688;2024-01-15T07:29:42;2.20;93.40
47546;DHT22;50104;52.002;4.688;2024-01-15T07:34:43;2.20;93.30
47546;DHT22;50104;52.002;4.688;2024-01-15T07:39:44;2.20;93.10
47546;DHT22;50104;52.002;4.688;2024-01-15T07:44:45;2.20;93.00
47546;DHT22;50104;52.002;4.688;2024-01-15T07:49:46;2.20;93.00
47546;DHT22;50104;52.002;4.688;2024-01-15T07:54:47;2.20;93.10
47546;DHT22;50104;52.002;4.688;2024-01-15T07:59:47;2.10;93.10
47546;DHT22;50104;52.002;4.688;2024-01-15T08:04:48;2.10;93.10
47546;DHT22;50104;52.002;4.688;2024-01-15T08:09:49;2.10;93.10
47546;DHT22;50104;52.002;4.688;2024-01-15T08:14:50;2.10;93.10
47546;DHT22;50104;52.002;4.688;2024-01-15T08:19:51;2.10;93.10
47546;DHT22;50104;52.002;4.688;2024-01-15T08:24:52;2.10;93.50
47546;DHT22;50104;52.002;4.688;2024-01-15T08:29:53;2.10;94.00
47546;DHT22;50104;52.002;4.688;2024-01-15T08:34:54;2.10;94.20
47546;DHT22;50104;52.002;4.688;2024-01-15T08:39:55;2.10;94.30
47546;DHT22;50104;52.002;4.688;2024-01-15T08:44:56;2.10;94.40
47546;DHT22;50104;52.002;4.688;2024-01-15T08:49:56;2.20;94.40
47546;DHT22;50104;52.002;4.688;2024-01-15T08:54:58;2.20;94.40
47546;DHT22;50104;52.002;4.688;2024-01-15T08:59:58;2.20;94.30
47546;DHT22;50104;52.002;4.688;2024-01-15T09:05:00;2.20;94.50
47546;DHT22;50104;52.002;4.688;2024-01-15T09:10:00;2.30;95.00
47546;DHT22;50104;52.002;4.688;2024-01-15T09:15:01;2.40;95.40
47546;DHT22;50104;52.002;4.688;2024-01-15T09:20:05;2.50;95.40
47546;DHT22;50104;52.002;4.688;2024-01-15T09:25:07;2.50;95.00
47546;DHT22;50104;52.002;4.688;2024-01-15T09:30:09;2.60;94.50
47546;DHT22;50104;52.002;4.688;2024-01-15T09:35:10;2.60;94.00
47546;DHT22;50104;52.002;4.688;2024-01-15T09:40:15;2.60;93.80
47546;DHT22;50104;52.002;4.688;2024-01-15T09:45:16;2.60;93.60
47546;DHT22;50104;52.002;4.688;2024-01-15T09:50:17;2.50;93.70
47546;DHT22;50104;52.002;4.688;2024-01-15T09:55:18;2.50;93.80
47546;DHT22;50104;52.002;4.688;2024-01-15T10:00:20;2.50;94.00
47546;DHT22;50104;52.002;4.688;2024-01-15T10:05:21;2.50;94.10
47546;DHT22;50104;52.002;4.688;2024-01-15T10:10:22;2.50;94.30
47546;DHT22;50104;52.002;4.688;2024-01-15T10:15:23;2.60;94.50
47546;DHT22;50104;52.002;4.688;2024-01-15T10:20:24;2.70;94.50
47546;DHT22;50104;52.002;4.688;2024-01-15T10:25:25;2.70;94.40
47546;DHT22;50104;52.002;4.688;2024-01-15T10:30:26;2.80;94.20
47546;DHT22;50104;52.002;4.688;2024-01-15T10:35:30;2.80;94.20
47546;DHT22;50104;52.002;4.688;2024-01-15T10:40:32;2.80;94.20
47546;DHT22;50104;52.002;4.688;2024-01-15T10:45:32;2.90;94.20
47546;DHT22;50104;52.002;4.688;2024-01-15T10:50:33;2.90;94.20
47546;DHT22;50104;52.002;4.688;2024-01-15T10:55:35;3.00;94.20
47546;DHT22;50104;52.002;4.688;2024-01-15T11:00:37;3.00;94.10
47546;DHT22;50104;52.002;4.688;2024-01-15T11:05:39;3.00;94.00
47546;DHT22;50104;52.002;4.688;2024-01-15T11:10:49;3.10;94.10
47546;DHT22;50104;52.002;4.688;2024-01-15T11:16:09;3.20;94.30
47546;DHT22;50104;52.002;4.688;2024-01-15T11:37:01;3.50;94.30
47546;DHT22;50104;52.002;4.688;2024-01-15T11:42:03;3.60;94.60
47546;DHT22;50104;52.002;4.688;2024-01-15T11:47:06;3.70;94.80
47546;DHT22;50104;52.002;4.688;2024-01-15T11:52:11;3.80;94.90
47546;DHT22;50104;52.002;4.688;2024-01-15T11:57:22;3.90;94.10
47546;DHT22;50104;52.002;4.688;2024-01-15T12:02:30;4.00;93.40
47546;DHT22;50104;52.002;4.688;2024-01-15T12:07:31;4.00;92.90
47546;DHT22;50104;52.002;4.688;2024-01-15T12:12:46;4.00;92.60
47546;DHT22;50104;52.002;4.688;2024-01-15T12:18:00;4.00;92.40
47546;DHT22;50104;52.002;4.688;2024-01-15T12:23:03;3.90;92.10
47546;DHT22;50104;52.002;4.688;2024-01-15T12:28:04;3.90;92.10
47546;DHT22;50104;52.002;4.688;2024-01-15T12:33:06;3.90;92.20
47546;DHT22;50104;52.002;4.688;2024-01-15T12:38:08;3.90;92.30
47546;DHT22;50104;52.002;4.688;2024-01-15T12:43:12;3.90;92.50
47546;DHT22;50104;52.002;4.688;2024-01-15T12:48:13;3.90;92.60
47546;DHT22;50104;52.002;4.688;2024-01-15T12:53:16;3.90;92.50
47546;DHT22;50104;52.002;4.688;2024-01-15T12:58:18;3.80;92.40
47546;DHT22;50104;52.002;4.688;2024-01-15T13:03:19;3.80;92.30
47546;DHT22;50104;52.002;4.688;2024-01-15T13:08:19;3.80;92.40
47546;DHT22;50104;52.002;4.688;2024-01-15T13:13:20;3.80;92.50
47546;DHT22;50104;52.002;4.688;2024-01-15T13:18:21;3.80;92.60
47546;DHT22;50104;52.002;4.688;2024-01-15T13:23:22;3.80;92.80
47546;DHT22;50104;52.002;4.688;2024-01-15T13:28:23;3.80;92.60
47546;DHT22;50104;52.002;4.688;2024-01-15T13:33:23;3.80;92.50
47546;DHT22;50104;52.002;4.688;2024-01-15T13:38:24;3.90;91.90
47546;DHT22;50104;52.002;4.688;2024-01-15T13:43:25;3.90;91.40
47546;DHT22;50104;52.002;4.688;2024-01-15T13:48:27;3.80;91.00
47546;DHT22;50104;52.002;4.688;2024-01-15T13:53:28;3.80;90.70
47546;DHT22;50104;52.002;4.688;2024-01-15T13:58:30;3.70;90.40
47546;DHT22;50104;52.002;4.688;2024-01-15T14:03:32;3.60;90.40
47546;DHT22;50104;52.002;4.688;2024-01-15T14:08:33;3.50;90.70
47546;DHT22;50104;52.002;4.688;2024-01-15T14:13:34;3.50;91.10
47546;DHT22;50104;52.002;4.688;2024-01-15T14:18:34;3.40;91.30
47546;DHT22;50104;52.002;4.688;2024-01-15T14:23:35;3.40;91.60
47546;DHT22;50104;52.002;4.688;2024-01-15T14:28:36;3.40;91.80
47546;DHT22;50104;52.002;4.688;2024-01-15T14:33:37;3.40;92.00
47546;DHT22;50104;52.002;4.688;2024-01-15T14:38:38;3.50;92.00
47546;DHT22;50104;52.002;4.688;2024-01-15T14:43:39;3.50;92.10
47546;DHT22;50104;52.002;4.688;2024-01-15T14:48:39;3.50;91.90
47546;DHT22;50104;52.002;4.688;2024-01-15T14:53:40;3.50;91.70
47546;DHT22;50104;52.002;4.688;2024-01-15T14:58:41;3.60;91.80
47546;DHT22;50104;52.002;4.688;2024-01-15T15:03:43;3.60;91.70
47546;DHT22;50104;52.002;4.688;2024-01-15T15:08:44;3.70;91.50
47546;DHT22;50104;52.002;4.688;2024-01-15T15:13:45;3.70;91.60
47546;DHT22;50104;52.002;4.688;2024-01-15T15:18:46;3.70;90.70
47546;DHT22;50104;52.002;4.688;2024-01-15T15:23:47;3.70;90.10
47546;DHT22;50104;52.002;4.688;2024-01-15T15:28:48;3.60;89.70
47546;DHT22;50104;52.002;4.688;2024-01-15T15:33:49;3.50;89.60
47546;DHT22;50104;52.002;4.688;2024-01-15T15:38:50;3.40;89.90
47546;DHT22;50104;52.002;4.688;2024-01-15T15:43:51;3.40;90.10
47546;DHT22;50104;52.002;4.688;2024-01-15T15:48:52;3.30;89.90
47546;DHT22;50104;52.002;4.688;2024-01-15T15:53:52;3.30;89.80
47546;DHT22;50104;52.002;4.688;2024-01-15T15:58:53;3.20;90.10
47546;DHT22;50104;52.002;4.688;2024-01-15T16:03:54;3.20;90.40
47546;DHT22;50104;52.002;4.688;2024-01-15T16:08:55;3.10;90.40
47546;DHT22;50104;52.002;4.688;2024-01-15T16:13:56;3.10;90.40
47546;DHT22;50104;52.002;4.688;2024-01-15T16:18:57;3.00;90.30
47546;DHT22;50104;52.002;4.688;2024-01-15T16:23:58;3.00;90.20
47546;DHT22;50104;52.002;4.688;2024-01-15T16:28:59;2.90;90.30
47546;DHT22;50104;52.002;4.688;2024-01-15T16:33:59;2.90;90.30
47546;DHT22;50104;52.002;4.688;2024-01-15T16:39:01;2.80;90.20
47546;DHT22;50104;52.002;4.688;2024-01-15T16:44:01;2.80;90.10
47546;DHT22;50104;52.002;4.688;2024-01-15T16:49:02;2.70;90.10
47546;DHT22;50104;52.002;4.688;2024-01-15T16:54:09;2.60;90.20
47546;DHT22;50104;52.002;4.688;2024-01-15T16:59:10;2.60;90.30
47546;DHT22;50104;52.002;4.688;2024-01-15T17:04:11;2.50;90.80
47546;DHT22;50104;52.002;4.688;2024-01-15T17:09:12;2.50;91.30
47546;DHT22;50104;52.002;4.688;2024-01-15T17:14:13;2.50;91.50
47546;DHT22;50104;52.002;4.688;2024-01-15T17:19:13;2.50;91.90
47546;DHT22;50104;52.002;4.688;2024-01-15T17:24:15;2.50;92.30
47546;DHT22;50104;52.002;4.688;2024-01-15T17:29:16;2.50;92.20
47546;DHT22;50104;52.002;4.688;2024-01-15T17:34:17;2.50;91.90
47546;DHT22;50104;52.002;4.688;2024-01-15T17:39:18;2.50;91.60
47546;DHT22;50104;52.002;4.688;2024-01-15T17:44:19;2.50;91.40
47546;DHT22;50104;52.002;4.688;2024-01-15T17:49:20;2.50;91.20
47546;DHT22;50104;52.002;4.688;2024-01-15T17:54:21;2.50;91.00
47546;DHT22;50104;52.002;4.688;2024-01-15T17:59:22;2.40;91.00
47546;DHT22;50104;52.002;4.688;2024-01-15T18:04:23;2.30;91.00
47546;DHT22;50104;52.002;4.688;2024-01-15T18:09:24;2.30;91.20
47546;DHT22;50104;52.002;4.688;2024-01-15T18:14:24;2.20;91.80
47546;DHT22;50104;52.002;4.688;2024-01-15T18:19:25;2.20;92.40
47546;DHT22;50104;52.002;4.688;2024-01-15T18:24:26;2.20;92.30
47546;DHT22;50104;52.002;4.688;2024-01-15T18:29:27;2.20;92.20
47546;DHT22;50104;52.002;4.688;2024-01-15T18:34:28;2.20;92.10
47546;DHT22;50104;52.002;4.688;2024-01-15T18:39:28;2.20;91.80
47546;DHT22;50104;52.002;4.688;2024-01-15T18:44:29;2.20;91.80
47546;DHT22;50104;52.002;4.688;2024-01-15T18:49:30;2.10;91.80
47546;DHT22;50104;52.002;4.688;2024-01-15T18:54:32;2.10;91.80
47546;DHT22;50104;52.002;4.688;2024-01-15T18:59:32;2.10;91.90
47546;DHT22;50104;52.002;4.688;2024-01-15T19:04:35;2.10;92.10
47546;DHT22;50104;52.002;4.688;2024-01-15T19:09:36;2.00;92.10
47546;DHT22;50104;52.002;4.688;2024-01-15T19:14:37;2.00;92.10
47546;DHT22;50104;52.002;4.688;2024-01-15T19:19:37;2.00;92.10
47546;DHT22;50104;52.002;4.688;2024-01-15T19:24:39;1.90;92.20
47546;DHT22;50104;52.002;4.688;2024-01-15T19:29:39;1.90;92.40
47546;DHT22;50104;52.002;4.688;2024-01-15T19:34:40;1.80;92.60
47546;DHT22;50104;52.002;4.688;2024-01-15T19:39:41;1.80;92.70
47546;DHT22;50104;52.002;4.688;2024-01-15T19:44:42;1.80;92.80
47546;DHT22;50104;52.002;4.688;2024-01-15T19:49:43;1.80;92.90
47546;DHT22;50104;52.002;4.688;2024-01-15T19:54:46;1.90;93.00
47546;DHT22;50104;52.002;4.688;2024-01-15T19:59:47;1.90;93.10
47546;DHT22;50104;52.002;4.688;2024-01-15T20:04:54;1.90;93.00
47546;DHT22;50104;52.002;4.688;2024-01-15T20:09:55;1.90;93.00
47546;DHT22;50104;52.002;4.688;2024-01-15T20:14:56;1.90;92.90
47546;DHT22;50104;52.002;4.688;2024-01-15T20:19:57;1.90;93.10
47546;DHT22;50104;52.002;4.688;2024-01-15T20:24:58;1.90;93.40
47546;DHT22;50104;52.002;4.688;2024-01-15T20:29:58;1.90;93.60
47546;DHT22;50104;52.002;4.688;2024-01-15T20:35:00;1.90;93.70
47546;DHT22;50104;52.002;4.688;2024-01-15T20:40:01;1.90;93.60
47546;DHT22;50104;52.002;4.688;2024-01-15T20:45:04;1.90;93.70
47546;DHT22;50104;52.002;4.688;2024-01-15T20:50:05;2.00;93.50
47546;DHT22;50104;52.002;4.688;2024-01-15T20:55:07;2.00;93.40
47546;DHT22;50104;52.002;4.688;2024-01-15T21:00:09;2.00;93.30
47546;DHT22;50104;52.002;4.688;2024-01-15T21:05:11;2.00;93.20
47546;DHT22;50104;52.002;4.688;2024-01-15T21:10:12;2.00;93.10
47546;DHT22;50104;52.002;4.688;2024-01-15T21:15:13;1.90;93.00
47546;DHT22;50104;52.002;4.688;2024-01-15T21:20:14;1.90;93.10
47546;DHT22;50104;52.002;4.688;2024-01-15T21:25:14;1.80;93.10
47546;DHT22;50104;52.002;4.688;2024-01-15T21:30:15;1.80;93.10
47546;DHT22;50104;52.002;4.688;2024-01-15T21:35:16;1.80;93.20
47546;DHT22;50104;52.002;4.688;2024-01-15T21:40:17;1.70;93.30
47546;DHT22;50104;52.002;4.688;2024-01-15T21:45:18;1.80;93.40
47546;DHT22;50104;52.002;4.688;2024-01-15T21:50:19;1.70;93.40
47546;DHT22;50104;52.002;4.688;2024-01-15T21:55:20;1.70;93.30
47546;DHT22;50104;52.002;4.688;2024-01-15T22:00:21;1.70;93.20
47546;DHT22;50104;52.002;4.688;2024-01-15T22:05:22;1.70;93.20
47546;DHT22;50104;52.002;4.688;2024-01-15T22:10:23;1.60;93.30
47546;DHT22;50104;52.002;4.688;2024-01-15T22:15:23;1.60;93.40
47546;DHT22;50104;52.002;4.688;2024-01-15T22:20:25;1.60;93.40
47546;DHT22;50104;52.002;4.688;2024-01-15T22:25:25;1.60;93.40
47546;DHT22;50104;52.002;4.688;2024-01-15T22:30:27;1.60;93.50
47546;DHT22;50104;52.002;4.688;2024-01-15T22:35:28;1.60;93.60
47546;DHT22;50104;52.002;4.688;2024-01-15T22:40:29;1.60;93.60
47546;DHT22;50104;52.002;4.688;2024-01-15T22:45:29;1.60;93.80
47546;DHT22;50104;52.002;4.688;2024-01-15T22:50:30;1.60;94.40
47546;DHT22;50104;52.002;4.688;2024-01-15T22:55:31;1.60;94.40
47546;DHT22;50104;52.002;4.688;2024-01-15T23:00:32;1.60;94.50
47546;DHT22;50104;52.002;4.688;2024-01-15T23:05:33;1.70;94.50
47546;DHT22;50104;52.002;4.688;2024-01-15T23:10:34;1.70;94.40
47546;DHT22;50104;52.002;4.688;2024-01-15T23:15:35;1.70;94.20
47546;DHT22;50104;52.002;4.688;2024-01-15T23:20:36;1.70;94.10
47546;DHT22;50104;52.002;4.688;2024-01-15T23:25:37;1.70;93.90
47546;DHT22;50104;52.002;4.688;2024-01-15T23:30:38;1.60;93.80
47546;DHT22;50104;52.002;4.688;2024-01-15T23:35:39;1.60;93.70
47546;DHT22;50104;52.002;4.688;2024-01-15T23:40:40;1.50;93.90
47546;DHT22;50104;52.002;4.688;2024-01-15T23:45:40;1.50;93.90
47546;DHT22;50104;52.002;4.688;2024-01-15T23:50:41;1.50;94.10
47546;DHT22;50104;52.002;4.688;2024-01-15T23:55:42;1.50;94.20
